createdAt,value
2024-03-05T00:00:20.640Z,26.85
2024-03-05T00:00:50.777Z,26.88
2024-03-05T00:01:20.802Z,26.87
2024-03-05T00:01:50.795Z,26.84
2024-03-05T00:02:20.887Z,26.85
2024-03-05T00:02:50.941Z,26.85
2024-03-05T00:03:21.015Z,26.85
2024-03-05T00:03:51.085Z,26.87
2024-03-05T00:04:21.191Z,26.84
2024-03-05T00:04:51.307Z,26.84
2024-03-05T00:05:21.252Z,26.84
2024-03-05T00:05:51.366Z,26.82
2024-03-05T00:06:21.428Z,26.84
2024-03-05T00:06:51.511Z,26.85
2024-03-05T00:07:21.630Z,26.84
2024-03-05T00:07:51.895Z,26.84
2024-03-05T00:08:21.759Z,26.82
2024-03-05T00:08:51.834Z,26.85
2024-03-05T00:09:21.917Z,26.85
2024-03-05T00:09:51.988Z,26.84
2024-03-05T00:10:22.070Z,26.85
2024-03-05T00:10:52.232Z,26.84
2024-03-05T00:11:22.312Z,26.85
2024-03-05T00:11:52.300Z,26.84
2024-03-05T00:12:22.382Z,26.85
2024-03-05T00:12:52.448Z,26.81
2024-03-05T00:13:22.554Z,26.84
2024-03-05T00:13:52.697Z,26.82
2024-03-05T00:14:22.729Z,26.82
2024-03-05T00:14:52.804Z,26.84
2024-03-05T00:15:22.909Z,26.82
2024-03-05T00:15:52.978Z,26.84
2024-03-05T00:16:23.075Z,26.84
2024-03-05T00:16:53.261Z,26.82
2024-03-05T00:17:23.242Z,26.82
2024-03-05T00:17:53.324Z,26.84
2024-03-05T00:18:23.396Z,26.84
2024-03-05T00:18:53.469Z,26.82
2024-03-05T00:19:23.558Z,26.84
2024-03-05T00:19:53.733Z,26.84
2024-03-05T00:20:23.656Z,26.81
2024-03-05T00:20:53.715Z,26.81
2024-03-05T00:21:23.797Z,26.81
2024-03-05T00:21:53.870Z,26.81
2024-03-05T00:22:23.940Z,26.84
2024-03-05T00:22:54.013Z,26.82
2024-03-05T00:23:24.005Z,26.82
2024-03-05T00:23:54.098Z,26.81
2024-03-05T00:24:24.182Z,26.81
2024-03-05T00:24:54.270Z,26.82
2024-03-05T00:25:24.415Z,26.82
2024-03-05T00:25:54.478Z,26.82
2024-03-05T00:26:24.455Z,26.81
2024-03-05T00:26:54.566Z,26.82
2024-03-05T00:27:24.638Z,26.81
2024-03-05T00:27:54.562Z,26.82
2024-03-05T00:28:24.671Z,26.82
2024-03-05T00:28:54.773Z,26.79
2024-03-05T00:29:24.806Z,26.81
2024-03-05T00:29:54.896Z,26.81
2024-03-05T00:30:25.001Z,26.79
2024-03-05T00:30:55.068Z,26.82
2024-03-05T00:31:25.181Z,26.79
2024-03-05T00:31:55.299Z,26.81
2024-03-05T00:32:25.245Z,26.81
2024-03-05T00:32:55.350Z,26.78
2024-03-05T00:33:25.421Z,26.79
2024-03-05T00:33:55.496Z,26.79
2024-03-05T00:34:25.595Z,26.81
2024-03-05T00:34:55.757Z,26.81
2024-03-05T00:35:25.737Z,26.79
2024-03-05T00:35:55.807Z,26.79
2024-03-05T00:36:25.870Z,26.79
2024-03-05T00:36:55.946Z,26.79
2024-03-05T00:37:26.067Z,26.78
2024-03-05T00:37:56.183Z,26.79
2024-03-05T00:38:33.546Z,26.79
2024-03-05T00:38:56.267Z,26.78
2024-03-05T00:39:26.356Z,26.77
2024-03-05T00:39:56.429Z,26.79
2024-03-05T00:40:26.604Z,26.77
2024-03-05T00:40:56.614Z,26.78
2024-03-05T00:41:26.623Z,26.77
2024-03-05T00:41:56.708Z,26.78
2024-03-05T00:42:26.793Z,26.78
2024-03-05T00:42:56.853Z,26.78
2024-03-05T00:43:26.972Z,26.78
2024-03-05T00:43:57.015Z,26.78
2024-03-05T00:44:27.026Z,26.75
2024-03-05T00:44:57.081Z,26.77
2024-03-05T00:45:27.136Z,26.78
2024-03-05T00:45:57.152Z,26.75
2024-03-05T00:46:27.232Z,26.75
2024-03-05T00:46:57.408Z,26.75
2024-03-05T00:47:27.309Z,26.77
2024-03-05T00:47:57.387Z,26.77
2024-03-05T00:48:27.416Z,26.77
2024-03-05T00:48:57.463Z,26.77
2024-03-05T00:49:27.522Z,26.75
2024-03-05T00:49:57.565Z,26.77
2024-03-05T00:50:27.614Z,26.75
2024-03-05T00:50:57.690Z,26.77
2024-03-05T00:51:27.706Z,26.75
2024-03-05T00:51:57.735Z,26.77
2024-03-05T00:52:27.804Z,26.74
2024-03-05T00:52:57.909Z,26.75
2024-03-05T00:53:27.848Z,26.74
2024-03-05T00:53:57.890Z,26.77
2024-03-05T00:54:27.960Z,26.74
2024-03-05T00:54:58.042Z,26.75
2024-03-05T00:55:28.157Z,26.74
2024-03-05T00:55:58.247Z,26.77
2024-03-05T00:56:28.421Z,26.74
2024-03-05T00:56:58.359Z,26.74
2024-03-05T00:57:28.579Z,26.77
2024-03-05T00:57:58.425Z,26.75
2024-03-05T00:58:28.551Z,26.77
2024-03-05T00:58:58.586Z,26.75
2024-03-05T00:59:28.567Z,26.74
2024-03-05T00:59:58.654Z,26.75
2024-03-05T01:00:28.755Z,26.75
2024-03-05T01:00:58.928Z,26.74
2024-03-05T01:01:29.041Z,26.74
2024-03-05T01:01:59.015Z,26.74
2024-03-05T01:02:28.997Z,26.72
2024-03-05T01:02:59.072Z,26.71
2024-03-05T01:03:29.149Z,26.74
2024-03-05T01:03:59.240Z,26.75
2024-03-05T01:04:29.392Z,26.75
2024-03-05T01:04:59.486Z,26.72
2024-03-05T01:05:29.492Z,26.72
2024-03-05T01:05:59.584Z,26.74
2024-03-05T01:06:29.675Z,26.72
2024-03-05T01:06:59.646Z,26.72
2024-03-05T01:07:29.788Z,26.75
2024-03-05T01:07:59.841Z,26.72
2024-03-05T01:08:29.766Z,26.72
2024-03-05T01:08:59.851Z,26.72
2024-03-05T01:09:29.910Z,26.74
2024-03-05T01:09:59.992Z,26.71
2024-03-05T01:10:30.100Z,26.72
2024-03-05T01:11:00.229Z,26.74
2024-03-05T01:11:30.235Z,26.74
2024-03-05T01:12:00.299Z,26.72
2024-03-05T01:12:30.358Z,26.72
2024-03-05T01:13:00.435Z,26.71
2024-03-05T01:13:30.552Z,26.72
2024-03-05T01:14:00.669Z,26.72
2024-03-05T01:14:30.633Z,26.74
2024-03-05T01:15:00.718Z,26.72
2024-03-05T01:15:30.789Z,26.72
2024-03-05T01:16:00.883Z,26.70
2024-03-05T01:16:31.005Z,26.72
2024-03-05T01:17:01.003Z,26.72
2024-03-05T01:17:31.108Z,26.70
2024-03-05T01:18:01.474Z,26.70
2024-03-05T01:18:31.322Z,26.72
2024-03-05T01:19:31.439Z,26.72
2024-03-05T01:20:01.600Z,26.71
2024-03-05T01:20:31.556Z,26.72
2024-03-05T01:21:01.630Z,26.71
2024-03-05T01:21:31.704Z,26.70
2024-03-05T01:22:01.782Z,26.71
2024-03-05T01:22:31.864Z,26.71
2024-03-05T01:23:01.953Z,26.70
2024-03-05T01:23:32.069Z,26.72
2024-03-05T01:24:02.126Z,26.71
2024-03-05T01:24:32.203Z,26.68
2024-03-05T01:25:02.300Z,26.70
2024-03-05T01:25:32.428Z,26.70
2024-03-05T01:26:02.489Z,26.70
2024-03-05T01:26:32.453Z,26.71
2024-03-05T01:27:02.541Z,26.70
2024-03-05T01:27:32.604Z,26.70
2024-03-05T01:28:02.674Z,26.70
2024-03-05T01:28:32.825Z,26.71
2024-03-05T01:29:02.786Z,26.71
2024-03-05T01:29:32.865Z,26.68
2024-03-05T01:30:02.987Z,26.70
2024-03-05T01:30:32.969Z,26.68
2024-03-05T01:31:03.056Z,26.70
2024-03-05T01:31:33.186Z,26.70
2024-03-05T01:32:03.329Z,26.68
2024-03-05T01:32:33.309Z,26.70
2024-03-05T01:33:03.295Z,26.68
2024-03-05T01:33:33.380Z,26.70
2024-03-05T01:34:03.454Z,26.70
2024-03-05T01:34:33.567Z,26.68
2024-03-05T01:35:03.705Z,26.68
2024-03-05T01:35:33.656Z,26.71
2024-03-05T01:36:03.725Z,26.67
2024-03-05T01:36:33.805Z,26.68
2024-03-05T01:37:03.885Z,26.70
2024-03-05T01:37:34.005Z,26.70
2024-03-05T01:38:03.992Z,26.68
2024-03-05T01:38:34.062Z,26.67
2024-03-05T01:39:04.137Z,26.67
2024-03-05T01:39:34.221Z,26.64
2024-03-05T01:40:04.300Z,26.68
2024-03-05T01:40:34.417Z,26.68
2024-03-05T01:41:04.366Z,26.67
2024-03-05T01:41:34.437Z,26.70
2024-03-05T01:42:04.569Z,26.67
2024-03-05T01:42:34.624Z,26.68
2024-03-05T01:43:04.693Z,26.67
2024-03-05T01:43:34.805Z,26.67
2024-03-05T01:44:04.869Z,26.65
2024-03-05T01:44:34.885Z,26.67
2024-03-05T01:45:04.947Z,26.65
2024-03-05T01:45:34.975Z,26.65
2024-03-05T01:46:05.003Z,26.65
2024-03-05T01:46:35.057Z,26.68
2024-03-05T01:47:05.140Z,26.65
2024-03-05T01:47:35.214Z,26.65
2024-03-05T01:48:05.382Z,26.67
2024-03-05T01:48:35.323Z,26.65
2024-03-05T01:49:05.360Z,26.64
2024-03-05T01:49:35.427Z,26.67
2024-03-05T01:50:05.502Z,26.67
2024-03-05T01:50:35.554Z,26.65
2024-03-05T01:51:05.574Z,26.65
2024-03-05T01:51:35.673Z,26.64
2024-03-05T01:52:05.720Z,26.64
2024-03-05T01:52:35.760Z,26.65
2024-03-05T01:53:05.811Z,26.65
2024-03-05T01:53:35.826Z,26.65
2024-03-05T01:54:05.891Z,26.62
2024-03-05T01:54:35.964Z,26.64
2024-03-05T01:55:06.051Z,26.64
2024-03-05T01:55:36.167Z,26.64
2024-03-05T01:56:06.273Z,26.62
2024-03-05T01:56:36.244Z,26.64
2024-03-05T01:57:06.321Z,26.65
2024-03-05T01:57:36.408Z,26.65
2024-03-05T01:58:06.470Z,26.65
2024-03-05T01:58:36.545Z,26.65
2024-03-05T01:59:06.652Z,26.65
2024-03-05T01:59:36.708Z,26.64
2024-03-05T02:00:06.780Z,26.65
2024-03-05T02:00:36.876Z,26.67
2024-03-05T02:01:06.960Z,26.62
2024-03-05T02:01:37.112Z,26.64
2024-03-05T02:02:07.108Z,26.64
2024-03-05T02:02:37.201Z,26.64
2024-03-05T02:03:07.261Z,26.64
2024-03-05T02:03:37.366Z,26.67
2024-03-05T02:04:07.414Z,26.62
2024-03-05T02:04:37.557Z,26.65
2024-03-05T02:05:07.528Z,26.65
2024-03-05T02:05:37.595Z,26.61
2024-03-05T02:06:07.674Z,26.64
2024-03-05T02:06:37.757Z,26.64
2024-03-05T02:07:07.836Z,26.62
2024-03-05T02:07:37.946Z,26.64
2024-03-05T02:08:07.916Z,26.62
2024-03-05T02:08:38.017Z,26.62
2024-03-05T02:09:08.082Z,26.62
2024-03-05T02:09:38.172Z,26.62
2024-03-05T02:10:08.231Z,26.64
2024-03-05T02:10:38.395Z,26.62
2024-03-05T02:11:08.421Z,26.64
2024-03-05T02:11:43.209Z,26.62
2024-03-05T02:12:08.496Z,26.61
2024-03-05T02:12:38.576Z,26.64
2024-03-05T02:13:08.637Z,26.65
2024-03-05T02:13:38.808Z,26.62
2024-03-05T02:14:08.755Z,26.62
2024-03-05T02:14:38.871Z,26.62
2024-03-05T02:15:08.850Z,26.62
2024-03-05T02:15:38.905Z,26.61
2024-03-05T02:16:09.010Z,26.61
2024-03-05T02:16:39.090Z,26.62
2024-03-05T02:17:09.187Z,26.61
2024-03-05T02:17:39.281Z,26.61
2024-03-05T02:18:09.486Z,26.64
2024-03-05T02:18:39.438Z,26.62
2024-03-05T02:19:09.525Z,26.60
2024-03-05T02:19:39.612Z,26.62
2024-03-05T02:20:09.660Z,26.61
2024-03-05T02:20:39.736Z,26.61
2024-03-05T02:21:09.816Z,26.60
2024-03-05T02:21:39.897Z,26.58
2024-03-05T02:22:09.966Z,26.62
2024-03-05T02:22:40.121Z,26.60
2024-03-05T02:23:10.102Z,26.62
2024-03-05T02:23:40.149Z,26.60
2024-03-05T02:24:10.221Z,26.61
2024-03-05T02:24:40.296Z,26.60
2024-03-05T02:25:10.368Z,26.61
2024-03-05T02:25:40.503Z,26.62
2024-03-05T02:26:10.494Z,26.60
2024-03-05T02:26:40.597Z,26.60
2024-03-05T02:27:14.677Z,26.61
2024-03-05T02:27:40.750Z,26.58
2024-03-05T02:28:10.838Z,26.60
2024-03-05T02:28:40.922Z,26.57
2024-03-05T02:29:11.006Z,26.60
2024-03-05T02:29:41.084Z,26.60
2024-03-05T02:30:11.188Z,26.58
2024-03-05T02:30:41.254Z,26.61
2024-03-05T02:31:11.354Z,26.58
2024-03-05T02:31:41.442Z,26.58
2024-03-05T02:32:11.409Z,26.58
2024-03-05T02:32:41.541Z,26.58
2024-03-05T02:33:11.576Z,26.60
2024-03-05T02:33:41.519Z,26.61
2024-03-05T02:34:11.611Z,26.55
2024-03-05T02:34:41.704Z,26.58
2024-03-05T02:35:11.787Z,26.57
2024-03-05T02:35:41.865Z,26.60
2024-03-05T02:36:11.936Z,26.60
2024-03-05T02:36:41.995Z,26.58
2024-03-05T02:37:12.080Z,26.57
2024-03-05T02:37:42.173Z,26.57
2024-03-05T02:38:12.267Z,26.61
2024-03-05T02:38:42.319Z,26.58
2024-03-05T02:39:12.404Z,26.60
2024-03-05T02:39:42.480Z,26.60
2024-03-05T02:40:12.660Z,26.60
2024-03-05T02:40:42.668Z,26.60
2024-03-05T02:41:12.741Z,26.58
2024-03-05T02:41:42.819Z,26.57
2024-03-05T02:42:12.886Z,26.58
2024-03-05T02:42:42.962Z,26.57
2024-03-05T02:43:13.054Z,26.57
2024-03-05T02:43:43.231Z,26.58
2024-03-05T02:44:13.252Z,26.58
2024-03-05T02:44:43.283Z,26.57
2024-03-05T02:45:13.319Z,26.58
2024-03-05T02:45:43.346Z,26.58
2024-03-05T02:46:13.430Z,26.58
2024-03-05T02:46:43.480Z,26.60
2024-03-05T02:47:13.457Z,26.58
2024-03-05T02:47:44.074Z,26.58
2024-03-05T02:48:13.589Z,26.60
2024-03-05T02:48:43.704Z,26.57
2024-03-05T02:49:13.741Z,26.60
2024-03-05T02:49:43.810Z,26.57
2024-03-05T02:50:13.860Z,26.58
2024-03-05T02:50:43.877Z,26.58
2024-03-05T02:51:13.920Z,26.57
2024-03-05T02:51:43.948Z,26.58
2024-03-05T02:52:14.089Z,26.60
2024-03-05T02:52:44.180Z,26.58
2024-03-05T02:53:14.205Z,26.57
2024-03-05T02:53:44.248Z,26.57
2024-03-05T02:54:14.312Z,26.60
2024-03-05T02:54:44.385Z,26.57
2024-03-05T02:55:14.597Z,26.58
2024-03-05T02:55:44.612Z,26.57
2024-03-05T02:56:14.678Z,26.58
2024-03-05T02:56:44.754Z,26.55
2024-03-05T02:57:14.826Z,26.57
2024-03-05T02:57:45.545Z,26.55
2024-03-05T02:58:15.033Z,26.55
2024-03-05T02:59:14.999Z,26.57
2024-03-05T02:59:45.078Z,26.57
2024-03-05T03:00:15.149Z,26.55
2024-03-05T03:00:45.262Z,26.57
2024-03-05T03:01:15.488Z,26.57
2024-03-05T03:01:45.467Z,26.55
2024-03-05T03:02:15.526Z,26.54
2024-03-05T03:02:45.601Z,26.57
2024-03-05T03:03:15.673Z,26.55
2024-03-05T03:03:45.749Z,26.55
2024-03-05T03:04:15.869Z,26.55
2024-03-05T03:04:45.958Z,26.54
2024-03-05T03:05:16.043Z,26.54
2024-03-05T03:05:46.106Z,26.54
2024-03-05T03:06:16.176Z,26.54
2024-03-05T03:06:46.256Z,26.54
2024-03-05T03:07:16.406Z,26.54
2024-03-05T03:07:46.438Z,26.53
2024-03-05T03:08:16.516Z,26.55
2024-03-05T03:08:46.493Z,26.54
2024-03-05T03:09:16.570Z,26.55
2024-03-05T03:09:46.634Z,26.57
2024-03-05T03:10:16.883Z,26.53
2024-03-05T03:10:46.840Z,26.55
2024-03-05T03:11:16.936Z,26.51
2024-03-05T03:11:46.881Z,26.55
2024-03-05T03:12:16.845Z,26.55
2024-03-05T03:12:46.917Z,26.54
2024-03-05T03:13:17.076Z,26.53
2024-03-05T03:13:47.052Z,26.54
2024-03-05T03:14:17.146Z,26.53
2024-03-05T03:14:47.236Z,26.54
2024-03-05T03:15:17.317Z,26.54
2024-03-05T03:15:47.391Z,26.53
2024-03-05T03:16:17.527Z,26.53
2024-03-05T03:16:47.538Z,26.53
2024-03-05T03:17:17.618Z,26.54
2024-03-05T03:17:47.718Z,26.53
2024-03-05T03:18:17.895Z,26.53
2024-03-05T03:18:47.907Z,26.54
2024-03-05T03:19:18.008Z,26.54
2024-03-05T03:19:48.048Z,26.54
2024-03-05T03:20:18.041Z,26.54
2024-03-05T03:20:48.007Z,26.54
2024-03-05T03:21:18.114Z,26.53
2024-03-05T03:21:48.098Z,26.53
2024-03-05T03:22:18.220Z,26.51
2024-03-05T03:22:48.256Z,26.54
2024-03-05T03:23:18.240Z,26.53
2024-03-05T03:23:48.317Z,26.51
2024-03-05T03:24:18.393Z,26.48
2024-03-05T03:24:48.496Z,26.53
2024-03-05T03:25:18.563Z,26.53
2024-03-05T03:25:48.689Z,26.50
2024-03-05T03:26:18.809Z,26.51
2024-03-05T03:26:48.801Z,26.51
2024-03-05T03:27:18.876Z,26.53
2024-03-05T03:27:48.962Z,26.53
2024-03-05T03:28:19.044Z,26.50
2024-03-05T03:28:49.165Z,26.53
2024-03-05T03:29:19.225Z,26.51
2024-03-05T03:29:49.307Z,26.51
2024-03-05T03:30:19.871Z,26.50
2024-03-05T03:30:49.445Z,26.51
2024-03-05T03:31:19.543Z,26.48
2024-03-05T03:31:49.714Z,26.51
2024-03-05T03:32:19.672Z,26.48
2024-03-05T03:32:49.802Z,26.48
2024-03-05T03:33:19.744Z,26.50
2024-03-05T03:33:49.813Z,26.51
2024-03-05T03:34:19.921Z,26.50
2024-03-05T03:34:50.029Z,26.48
2024-03-05T03:35:20.051Z,26.50
2024-03-05T03:35:50.099Z,26.50
2024-03-05T03:36:20.179Z,26.51
2024-03-05T03:36:50.265Z,26.51
2024-03-05T03:37:20.381Z,26.50
2024-03-05T03:37:50.433Z,26.50
2024-03-05T03:38:20.370Z,26.50
2024-03-05T03:38:50.439Z,26.50
2024-03-05T03:39:20.508Z,26.50
2024-03-05T03:39:50.603Z,26.50
2024-03-05T03:40:20.686Z,26.51
2024-03-05T03:40:50.786Z,26.50
2024-03-05T03:41:20.990Z,26.50
2024-03-05T03:41:50.848Z,26.51
2024-03-05T03:42:20.950Z,26.50
2024-03-05T03:42:51.009Z,26.53
2024-03-05T03:43:21.369Z,26.50
2024-03-05T03:43:51.205Z,26.50
2024-03-05T03:44:21.255Z,26.50
2024-03-05T03:44:51.288Z,26.51
2024-03-05T03:45:21.453Z,26.51
2024-03-05T03:45:51.433Z,26.50
2024-03-05T03:46:21.553Z,26.50
2024-03-05T03:46:51.812Z,26.51
2024-03-05T03:47:21.559Z,26.48
2024-03-05T03:47:51.935Z,26.48
2024-03-05T03:48:21.621Z,26.53
2024-03-05T03:48:51.646Z,26.50
2024-03-05T03:49:21.722Z,26.51
2024-03-05T03:49:51.830Z,26.50
2024-03-05T03:50:21.765Z,26.53
2024-03-05T03:50:51.816Z,26.50
2024-03-05T03:51:21.820Z,26.53
2024-03-05T03:51:51.862Z,26.50
2024-03-05T03:52:21.988Z,26.50
2024-03-05T03:52:51.973Z,26.55
2024-03-05T03:53:21.914Z,26.54
2024-03-05T03:53:51.974Z,26.55
2024-03-05T03:54:22.047Z,26.55
2024-03-05T03:54:52.125Z,26.55
2024-03-05T03:55:22.237Z,26.58
2024-03-05T03:55:52.429Z,26.60
2024-03-05T03:56:22.422Z,26.60
2024-03-05T03:56:52.497Z,26.58
2024-03-05T03:57:22.559Z,26.60
2024-03-05T03:57:52.639Z,26.60
2024-03-05T03:58:22.737Z,26.61
2024-03-05T03:58:52.902Z,26.64
2024-03-05T03:59:22.856Z,26.62
2024-03-05T03:59:52.930Z,26.64
2024-03-05T04:00:23.012Z,26.65
2024-03-05T04:00:53.107Z,26.64
2024-03-05T04:01:23.261Z,26.67
2024-03-05T04:01:53.320Z,26.70
2024-03-05T04:02:23.301Z,26.70
2024-03-05T04:02:53.391Z,26.70
2024-03-05T04:03:23.465Z,26.70
2024-03-05T04:03:53.534Z,26.71
2024-03-05T04:04:23.623Z,26.72
2024-03-05T04:04:53.744Z,26.72
2024-03-05T04:05:23.737Z,26.74
2024-03-05T04:05:53.805Z,26.75
2024-03-05T04:06:23.903Z,26.78
2024-03-05T04:06:53.980Z,26.79
2024-03-05T04:07:24.084Z,26.79
2024-03-05T04:07:54.259Z,26.79
2024-03-05T04:08:24.268Z,26.79
2024-03-05T04:08:54.345Z,26.81
2024-03-05T04:09:24.421Z,26.79
2024-03-05T04:09:54.518Z,26.84
2024-03-05T04:10:24.700Z,26.82
2024-03-05T04:10:54.725Z,26.82
2024-03-05T04:11:24.774Z,26.82
2024-03-05T04:11:54.784Z,26.84
2024-03-05T04:12:24.784Z,26.85
2024-03-05T04:12:54.867Z,26.87
2024-03-05T04:13:24.951Z,26.85
2024-03-05T04:13:55.145Z,26.85
2024-03-05T04:14:25.130Z,26.87
2024-03-05T04:14:55.190Z,26.88
2024-03-05T04:15:25.268Z,26.89
2024-03-05T04:15:55.341Z,26.89
2024-03-05T04:16:25.452Z,26.89
2024-03-05T04:16:55.812Z,26.89
2024-03-05T04:17:25.632Z,26.91
2024-03-05T04:17:55.624Z,26.89
2024-03-05T04:18:25.679Z,26.94
2024-03-05T04:18:55.751Z,26.94
2024-03-05T04:19:25.894Z,26.92
2024-03-05T04:19:55.937Z,26.92
2024-03-05T04:20:25.943Z,26.94
2024-03-05T04:20:56.017Z,26.91
2024-03-05T04:21:26.120Z,26.92
2024-03-05T04:21:56.181Z,26.96
2024-03-05T04:22:26.280Z,26.92
2024-03-05T04:22:56.415Z,26.95
2024-03-05T04:23:26.360Z,26.95
2024-03-05T04:23:56.432Z,26.96
2024-03-05T04:24:26.504Z,26.95
2024-03-05T04:24:56.609Z,26.94
2024-03-05T04:25:26.825Z,26.96
2024-03-05T04:25:56.823Z,26.95
2024-03-05T04:26:26.811Z,26.95
2024-03-05T04:26:56.882Z,26.94
2024-03-05T04:27:26.951Z,26.95
2024-03-05T04:27:57.024Z,26.96
2024-03-05T04:28:27.137Z,26.95
2024-03-05T04:28:57.217Z,26.95
2024-03-05T04:29:27.294Z,26.96
2024-03-05T04:29:57.367Z,26.96
2024-03-05T04:30:27.453Z,26.96
2024-03-05T04:30:57.523Z,26.96
2024-03-05T04:31:27.665Z,26.96
2024-03-05T04:31:57.619Z,26.96
2024-03-05T04:32:28.288Z,26.96
2024-03-05T04:33:00.012Z,26.96
2024-03-05T04:33:27.935Z,26.95
2024-03-05T04:33:57.917Z,26.94
2024-03-05T04:34:28.029Z,26.95
2024-03-05T04:34:58.142Z,26.94
2024-03-05T04:35:28.199Z,26.94
2024-03-05T04:35:58.925Z,26.91
2024-03-05T04:36:28.460Z,26.91
2024-03-05T04:37:28.555Z,26.89
2024-03-05T04:37:58.619Z,26.89
2024-03-05T04:38:28.600Z,26.85
2024-03-05T04:38:58.674Z,26.88
2024-03-05T04:39:28.759Z,26.85
2024-03-05T04:39:58.835Z,26.85
2024-03-05T04:40:28.956Z,26.82
2024-03-05T04:40:59.132Z,26.82
2024-03-05T04:41:29.008Z,26.81
2024-03-05T04:41:59.082Z,26.81
2024-03-05T04:42:29.140Z,26.79
2024-03-05T04:42:59.220Z,26.79
2024-03-05T04:43:29.326Z,26.79
2024-03-05T04:43:59.401Z,26.78
2024-03-05T04:44:29.470Z,26.77
2024-03-05T04:44:59.519Z,26.77
2024-03-05T04:45:29.561Z,26.77
2024-03-05T04:45:59.605Z,26.79
2024-03-05T04:46:29.807Z,26.77
2024-03-05T04:46:59.816Z,26.72
2024-03-05T04:47:29.842Z,26.77
2024-03-05T04:47:59.748Z,26.79
2024-03-05T04:48:29.780Z,26.79
2024-03-05T04:48:59.805Z,26.78
2024-03-05T04:49:29.872Z,26.77
2024-03-05T04:49:59.952Z,26.81
2024-03-05T04:50:29.895Z,26.78
2024-03-05T04:50:59.941Z,26.78
2024-03-05T04:51:29.971Z,26.79
2024-03-05T04:52:00.046Z,26.78
2024-03-05T04:52:32.850Z,26.79
2024-03-05T04:53:00.188Z,26.78
2024-03-05T04:53:30.279Z,26.81
2024-03-05T04:54:00.333Z,26.77
2024-03-05T04:54:30.429Z,26.81
2024-03-05T04:55:00.517Z,26.81
2024-03-05T04:55:30.642Z,26.82
2024-03-05T04:56:00.717Z,26.81
2024-03-05T04:56:30.717Z,26.81
2024-03-05T04:57:00.797Z,26.82
2024-03-05T04:57:30.863Z,26.84
2024-03-05T04:58:00.939Z,26.85
2024-03-05T04:58:31.125Z,26.85
2024-03-05T04:59:01.136Z,26.82
2024-03-05T04:59:31.105Z,26.84
2024-03-05T05:00:01.214Z,26.84
2024-03-05T05:00:31.284Z,26.87
2024-03-05T05:01:01.391Z,26.88
2024-03-05T05:01:31.452Z,26.88
2024-03-05T05:02:01.471Z,26.88
2024-03-05T05:02:31.445Z,26.91
2024-03-05T05:03:01.516Z,26.91
2024-03-05T05:03:31.606Z,26.92
2024-03-05T05:04:01.692Z,26.92
2024-03-05T05:04:31.894Z,26.94
2024-03-05T05:05:01.884Z,26.96
2024-03-05T05:05:31.864Z,26.95
2024-03-05T05:06:01.946Z,26.96
2024-03-05T05:06:32.038Z,26.98
2024-03-05T05:07:02.087Z,26.98
2024-03-05T05:07:32.237Z,27.01
2024-03-05T05:08:02.309Z,27.01
2024-03-05T05:08:32.297Z,27.03
2024-03-05T05:09:02.352Z,27.03
2024-03-05T05:09:32.429Z,27.03
2024-03-05T05:10:02.497Z,27.07
2024-03-05T05:10:32.611Z,27.06
2024-03-05T05:11:02.792Z,27.10
2024-03-05T05:11:32.886Z,27.12
2024-03-05T05:12:02.852Z,27.12
2024-03-05T05:12:32.926Z,27.15
2024-03-05T05:13:03.017Z,27.16
2024-03-05T05:13:33.169Z,27.17
2024-03-05T05:14:03.158Z,27.20
2024-03-05T05:14:35.896Z,27.19
2024-03-05T05:15:03.152Z,27.22
2024-03-05T05:15:33.229Z,27.26
2024-03-05T05:16:03.293Z,27.29
2024-03-05T05:16:33.403Z,27.27
2024-03-05T05:17:03.504Z,27.33
2024-03-05T05:17:33.598Z,27.34
2024-03-05T05:18:03.875Z,27.34
2024-03-05T05:18:33.769Z,27.33
2024-03-05T05:19:03.817Z,27.36
2024-03-05T05:19:34.017Z,27.33
2024-03-05T05:20:04.074Z,27.34
2024-03-05T05:20:34.051Z,27.34
2024-03-05T05:21:04.128Z,27.39
2024-03-05T05:21:34.203Z,27.37
2024-03-05T05:22:04.309Z,27.39
2024-03-05T05:22:34.412Z,27.39
2024-03-05T05:23:04.551Z,27.40
2024-03-05T05:23:34.524Z,27.40
2024-03-05T05:24:04.593Z,27.36
2024-03-05T05:24:34.673Z,27.37
2024-03-05T05:25:04.743Z,27.34
2024-03-05T05:25:34.844Z,27.37
2024-03-05T05:26:04.978Z,27.33
2024-03-05T05:26:34.940Z,27.32
2024-03-05T05:27:05.033Z,27.33
2024-03-05T05:27:35.010Z,27.33
2024-03-05T05:28:05.078Z,27.32
2024-03-05T05:28:35.220Z,27.32
2024-03-05T05:29:05.167Z,27.29
2024-03-05T05:29:40.647Z,27.30
2024-03-05T05:30:09.300Z,27.30
2024-03-05T05:30:35.396Z,27.36
2024-03-05T05:31:05.469Z,27.33
2024-03-05T05:31:35.664Z,27.33
2024-03-05T05:32:05.663Z,27.32
2024-03-05T05:32:35.646Z,27.30
2024-03-05T05:33:05.756Z,27.33
2024-03-05T05:33:35.862Z,27.30
2024-03-05T05:34:05.914Z,27.32
2024-03-05T05:34:36.030Z,27.30
2024-03-05T05:35:06.016Z,27.24
2024-03-05T05:35:36.079Z,27.30
2024-03-05T05:36:06.177Z,27.29
2024-03-05T05:36:36.262Z,27.26
2024-03-05T05:37:06.465Z,27.30
2024-03-05T05:37:36.377Z,27.32
2024-03-05T05:38:06.495Z,27.29
2024-03-05T05:38:36.556Z,27.30
2024-03-05T05:39:06.622Z,27.30
2024-03-05T05:39:36.705Z,27.29
2024-03-05T05:40:06.867Z,27.30
2024-03-05T05:40:36.882Z,27.27
2024-03-05T05:41:07.069Z,27.30
2024-03-05T05:41:37.027Z,27.29
2024-03-05T05:42:07.069Z,27.27
2024-03-05T05:42:37.155Z,27.24
2024-03-05T05:43:07.230Z,27.23
2024-03-05T05:43:37.315Z,27.15
2024-03-05T05:44:07.345Z,27.15
2024-03-05T05:44:37.377Z,27.07
2024-03-05T05:45:07.411Z,27.10
2024-03-05T05:45:37.461Z,27.07
2024-03-05T05:46:07.533Z,26.99
2024-03-05T05:46:37.640Z,26.96
2024-03-05T05:47:07.664Z,26.95
2024-03-05T05:47:37.695Z,26.95
2024-03-05T05:48:07.706Z,26.95
2024-03-05T05:48:37.681Z,26.95
2024-03-05T05:49:07.735Z,26.88
2024-03-05T05:49:37.789Z,26.91
2024-03-05T05:50:08.022Z,26.92
2024-03-05T05:50:37.830Z,26.94
2024-03-05T05:51:37.882Z,26.96
2024-03-05T05:52:07.918Z,26.96
2024-03-05T05:52:37.994Z,27.01
2024-03-05T05:53:08.069Z,27.03
2024-03-05T05:53:38.108Z,26.99
2024-03-05T05:54:08.169Z,27.02
2024-03-05T05:54:38.238Z,27.03
2024-03-05T05:55:08.361Z,27.03
2024-03-05T05:55:38.454Z,27.05
2024-03-05T05:56:08.568Z,27.06
2024-03-05T05:56:38.525Z,27.07
2024-03-05T05:57:08.620Z,27.03
2024-03-05T05:57:38.694Z,27.07
2024-03-05T05:58:08.780Z,27.09
2024-03-05T05:58:38.939Z,27.12
2024-03-05T05:59:08.885Z,27.13
2024-03-05T05:59:38.950Z,27.16
2024-03-05T06:00:09.267Z,27.15
2024-03-05T06:00:39.120Z,27.12
2024-03-05T06:01:39.341Z,27.10
2024-03-05T06:02:09.409Z,27.09
2024-03-05T06:02:39.413Z,27.09
2024-03-05T06:03:09.607Z,27.09
2024-03-05T06:03:39.416Z,27.07
2024-03-05T06:04:09.519Z,27.07
2024-03-05T06:04:39.664Z,27.07
2024-03-05T06:05:09.831Z,27.06
2024-03-05T06:05:39.821Z,27.07
2024-03-05T06:06:09.780Z,27.07
2024-03-05T06:06:39.929Z,27.06
2024-03-05T06:07:12.059Z,27.06
2024-03-05T06:07:39.980Z,27.05
2024-03-05T06:08:10.042Z,27.05
2024-03-05T06:08:40.138Z,27.05
2024-03-05T06:09:10.519Z,27.03
2024-03-05T06:09:40.316Z,27.05
2024-03-05T06:10:40.382Z,27.05
2024-03-05T06:11:10.467Z,27.07
2024-03-05T06:11:40.580Z,27.03
2024-03-05T06:12:10.480Z,27.05
2024-03-05T06:12:40.557Z,27.05
2024-03-05T06:13:10.647Z,27.03
2024-03-05T06:13:40.842Z,27.05
2024-03-05T06:14:10.873Z,27.03
2024-03-05T06:14:40.830Z,27.07
2024-03-05T06:15:10.904Z,27.06
2024-03-05T06:15:41.048Z,27.06
2024-03-05T06:16:10.988Z,27.07
2024-03-05T06:16:41.116Z,27.06
2024-03-05T06:17:11.193Z,27.06
2024-03-05T06:17:41.251Z,27.05
2024-03-05T06:18:11.268Z,27.06
2024-03-05T06:18:41.368Z,27.07
2024-03-05T06:19:11.448Z,27.05
2024-03-05T06:19:41.553Z,27.03
2024-03-05T06:20:11.753Z,27.05
2024-03-05T06:20:41.732Z,27.05
2024-03-05T06:21:11.813Z,27.07
2024-03-05T06:21:41.887Z,27.07
2024-03-05T06:22:19.373Z,27.06
2024-03-05T06:22:42.080Z,27.06
2024-03-05T06:23:12.150Z,27.09
2024-03-05T06:23:42.549Z,27.07
2024-03-05T06:24:12.264Z,27.03
2024-03-05T06:25:12.400Z,27.06
2024-03-05T06:25:42.507Z,27.06
2024-03-05T06:26:12.684Z,27.06
2024-03-05T06:26:42.637Z,27.09
2024-03-05T06:27:12.713Z,27.09
2024-03-05T06:27:42.808Z,27.13
2024-03-05T06:28:12.890Z,27.15
2024-03-05T06:28:43.017Z,27.17
2024-03-05T06:29:13.079Z,27.17
2024-03-05T06:29:43.177Z,27.17
2024-03-05T06:30:13.295Z,27.23
2024-03-05T06:30:43.372Z,27.24